Pct Moose — CGCZ — position and weather

sailwx.info

Track history (hours):
 
Tides and Currents Weather Stations Pressure Air Temp Water Temp Dewpoint Dewpoint Depression Visibility Wind Speed Wind Dir Waves Ship Positions

Pct Moose

Last reported at 2018-Feb-22 02:30 UTC. Time now 2018-Feb-22 03:00 UTC.
Position N 48°34' W 123°12'.

Length 33 m; draft 2.6 m.

Type: Military. MMSI: 316013412.

Date/timePositionNaut miles runAvg speedWind from/ knotsBaromVisibWave heightAir tempDewpointWater temp
2018-Feb-22 02:30N 48°34' W 123°12'4 8.0
2018-Feb-22 01:59N 48°30' W 123°10'4 8.0
2018-Feb-22 01:30N 48°26' W 123°10'4 9.0
2018-Feb-22 01:00N 48°23' W 123°15'4 1.9
2018-Feb-21 22:57N 48°19' W 123°15'4 5.5
2018-Feb-21 22:15N 48°20' W 123°21'310.4
2018-Feb-21 21:59N 48°21' W 123°17'0 0.5
2018-Feb-21 21:25N 48°20' W 123°16'1 0.5
2018-Feb-21 19:13N 48°19' W 123°16'2 9.2
2018-Feb-21 19:00N 48°21' W 123°15'3 1.4
2018-Feb-21 16:29N 48°19' W 123°19'2 3.0
2018-Feb-21 15:44N 48°19' W 123°16'2 7.4
2018-Feb-21 15:30N 48°21' W 123°14'3 6.9
2018-Feb-21 15:00N 48°24' W 123°11'5 9.1
2018-Feb-21 14:31N 48°28' W 123°12'4 8.9
2018-Feb-21 14:00N 48°33' W 123°13'4 8.6
2018-Feb-21 13:30N 48°37' W 123°15'4 8.5
2018-Feb-21 13:00N 48°41' W 123°16'4 8.3
2018-Feb-21 12:30N 48°44' W 123°20'4 8.6
2018-Feb-21 12:01N 48°43' W 123°26'4 8.3
2018-Feb-21 11:30N 48°40' W 123°30'3 5.2
2018-Feb-21 11:00N 48°42' W 123°30'5 9.2
2018-Feb-21 10:31N 48°44' W 123°24'5 9.4
2018-Feb-21 10:00N 48°49' W 123°21'4 9.0
2018-Feb-21 09:30N 48°52' W 123°25'510.1
2018-Feb-21 09:00N 48°55' W 123°31'4 7.8
2018-Feb-21 08:30N 48°56' W 123°37'2 4.5
2018-Feb-21 08:00N 48°56' W 123°40'5 9.4
2018-Feb-21 07:25N 49°00' W 123°44'3 6.0
2018-Feb-21 06:52N 49°02' W 123°39'3 8.8
2018-Feb-21 06:29N 48°59' W 123°36'3 6.7
2018-Feb-21 06:00N 48°57' W 123°32'6 7.5
2018-Feb-21 05:10N 49°01' W 123°40'1 8.5
2018-Feb-21 05:00N 49°01' W 123°38'510.3
2018-Feb-21 04:31N 48°57' W 123°33'510.2
2018-Feb-21 04:00N 48°54' W 123°27'611.9
2018-Feb-21 03:30N 48°50' W 123°20'5 8.8
2018-Feb-21 02:59N 48°48' W 123°14'0 0.9
2018-Feb-21 02:30N 48°48' W 123°14'1 1.0
2018-Feb-21 02:00N 48°48' W 123°13'1 2.3
2018-Feb-21 01:30N 48°48' W 123°15'4 7.8
2018-Feb-21 01:00N 48°45' W 123°11'3 6.9
2018-Feb-21 00:30N 48°42' W 123°13'5 9.6
2018-Feb-21 00:00N 48°42' W 123°20'1 2.4
2018-Feb-20 23:30N 48°42' W 123°22'1 1.3
2018-Feb-20 23:00N 48°42' W 123°23'510.1
2018-Feb-20 22:30N 48°47' W 123°21'4 8.5
2018-Feb-20 22:01N 48°51' W 123°25'611.2
2018-Feb-20 21:30N 48°55' W 123°30'1610.9
2018-Feb-20 20:05N 49°06' W 123°46'0 2.8
2018-Feb-20 19:59N 49°06' W 123°46'0 0.4
2018-Feb-20 19:23N 49°06' W 123°46'0 0.8
2018-Feb-20 19:00N 49°06' W 123°46'1 1.2
2018-Feb-20 18:26N 49°05' W 123°45'3 6.3
2018-Feb-20 17:56N 49°02' W 123°44'511.6
2018-Feb-20 17:30N 48°58' W 123°43'3 5.2
2018-Feb-20 17:00N 48°55' W 123°41'5 7.9
2018-Feb-20 16:25N 48°60' W 123°44'4 8.0
2018-Feb-20 15:51N 49°01' W 123°37'3 9.5
2018-Feb-20 15:29N 48°58' W 123°34'5 9.6
2018-Feb-20 15:00N 48°55' W 123°29'5 9.9
2018-Feb-20 14:30N 48°51' W 123°23'4 8.8
2018-Feb-20 14:00N 48°47' W 123°20'5 9.7
2018-Feb-20 13:30N 48°44' W 123°15'4 8.5
2018-Feb-20 13:00N 48°44' W 123°08'4 7.7
2018-Feb-20 12:30N 48°46' W 123°03'4 9.0
2018-Feb-20 12:00N 48°50' W 123°05'612.0
2018-Feb-20 11:30N 48°55' W 123°11'610.2
2018-Feb-20 10:58N 48°59' W 123°17'510.2
2018-Feb-20 10:30N 49°02' W 123°22'4 8.8
2018-Feb-20 10:00N 49°06' W 123°24'510.3
2018-Feb-20 09:30N 49°11' W 123°23'510.1
2018-Feb-20 09:00N 49°16' W 123°22'510.4
2018-Feb-20 08:30N 49°21' W 123°20'510.5
2018-Feb-20 08:00N 49°26' W 123°17'3 6.1
2018-Feb-20 07:30N 49°23' W 123°18'510.8
2018-Feb-20 07:00N 49°18' W 123°19'611.0
2018-Feb-20 06:30N 49°13' W 123°19'611.9
2018-Feb-20 06:00N 49°07' W 123°20'510.5
2018-Feb-20 05:30N 49°02' W 123°17'612.2
2018-Feb-20 05:00N 48°58' W 123°10'612.1
2018-Feb-20 04:29N 48°54' W 123°03'611.3
2018-Feb-20 04:00N 48°49' W 123°01'611.4
2018-Feb-20 03:28N 48°44' W 123°07'612.6
2018-Feb-20 03:00N 48°42' W 123°15'612.7
2018-Feb-20 02:30N 48°35' W 123°13'611.9
2018-Feb-20 02:00N 48°30' W 123°10'612.1
2018-Feb-20 01:30N 48°24' W 123°12'  
2018-Feb-15 19:10N 48°21' W 123°20'212.3
2018-Feb-15 19:00N 48°21' W 123°17'4 7.9
2018-Feb-15 18:30N 48°21' W 123°11'4 7.4
2018-Feb-15 18:00N 48°20' W 123°16'5 7.4
2018-Feb-15 17:21N 48°20' W 123°23'2 7.0
2018-Feb-15 17:00N 48°22' W 123°25'2 0.1
2018-Feb-14 22:15N 48°23' W 123°23'312.0
2018-Feb-14 21:58N 48°21' W 123°19'4 7.9
2018-Feb-14 21:27N 48°21' W 123°13'1 1.2
2018-Feb-14 21:00N 48°20' W 123°12'4 8.4
2018-Feb-14 20:31N 48°21' W 123°19'6 9.2
2018-Feb-14 19:53N 48°21' W 123°10'3 7.1
2018-Feb-14 19:30N 48°23' W 123°07'3 6.2
2018-Feb-14 18:58N 48°21' W 123°10'11 5.2
2018-Feb-14 16:53N 48°24' W 123°26'1 0.1
2018-Feb-13 23:24N 48°24' W 123°24'716.2
2018-Feb-13 22:56N 48°20' W 123°14'4 8.4
2018-Feb-13 22:30N 48°22' W 123°09'1 1.1
2018-Feb-13 22:00N 48°22' W 123°09'6 8.9
2018-Feb-13 21:17N 48°18' W 123°17'3 9.0
2018-Feb-13 21:00N 48°20' W 123°14'4 7.7
2018-Feb-13 20:30N 48°22' W 123°09'1 2.6
2018-Feb-13 19:58N 48°21' W 123°10'4 8.8
2018-Feb-13 19:30N 48°20' W 123°16'5 9.7
2018-Feb-13 19:01N 48°23' W 123°11'3 5.2
2018-Feb-13 18:29N 48°20' W 123°10'4 8.6
2018-Feb-13 18:00N 48°20' W 123°17'6 8.3
2018-Feb-13 17:17N 48°20' W 123°26'  
Track history (hours):
 
Tides and Currents Weather Stations Pressure Air Temp Water Temp Dewpoint Dewpoint Depression Visibility Wind Speed Wind Dir Waves Ship Positions

Pct Moose

Last reported at 2018-Feb-22 02:30 UTC. Time now 2018-Feb-22 03:00 UTC.
Position N 48°34' W 123°12'.

Length 33 m; draft 2.6 m.

Type: Military. MMSI: 316013412.

Date/timePositionNaut miles runAvg speedWind from/ knotsBaromVisibWave heightAir tempDewpointWater temp
2018-Feb-22 02:30N 48°34' W 123°12'4 8.0
2018-Feb-22 01:59N 48°30' W 123°10'4 8.0
2018-Feb-22 01:30N 48°26' W 123°10'4 9.0
2018-Feb-22 01:00N 48°23' W 123°15'4 1.9
2018-Feb-21 22:57N 48°19' W 123°15'4 5.5
2018-Feb-21 22:15N 48°20' W 123°21'310.4
2018-Feb-21 21:59N 48°21' W 123°17'0 0.5
2018-Feb-21 21:25N 48°20' W 123°16'1 0.5
2018-Feb-21 19:13N 48°19' W 123°16'2 9.2
2018-Feb-21 19:00N 48°21' W 123°15'3 1.4
2018-Feb-21 16:29N 48°19' W 123°19'2 3.0
2018-Feb-21 15:44N 48°19' W 123°16'2 7.4
2018-Feb-21 15:30N 48°21' W 123°14'3 6.9
2018-Feb-21 15:00N 48°24' W 123°11'5 9.1
2018-Feb-21 14:31N 48°28' W 123°12'4 8.9
2018-Feb-21 14:00N 48°33' W 123°13'4 8.6
2018-Feb-21 13:30N 48°37' W 123°15'4 8.5
2018-Feb-21 13:00N 48°41' W 123°16'4 8.3
2018-Feb-21 12:30N 48°44' W 123°20'4 8.6
2018-Feb-21 12:01N 48°43' W 123°26'4 8.3
2018-Feb-21 11:30N 48°40' W 123°30'3 5.2
2018-Feb-21 11:00N 48°42' W 123°30'5 9.2
2018-Feb-21 10:31N 48°44' W 123°24'5 9.4
2018-Feb-21 10:00N 48°49' W 123°21'4 9.0
2018-Feb-21 09:30N 48°52' W 123°25'510.1
2018-Feb-21 09:00N 48°55' W 123°31'4 7.8
2018-Feb-21 08:30N 48°56' W 123°37'2 4.5
2018-Feb-21 08:00N 48°56' W 123°40'5 9.4
2018-Feb-21 07:25N 49°00' W 123°44'3 6.0
2018-Feb-21 06:52N 49°02' W 123°39'3 8.8
2018-Feb-21 06:29N 48°59' W 123°36'3 6.7
2018-Feb-21 06:00N 48°57' W 123°32'6 7.5
2018-Feb-21 05:10N 49°01' W 123°40'1 8.5
2018-Feb-21 05:00N 49°01' W 123°38'510.3
2018-Feb-21 04:31N 48°57' W 123°33'510.2
2018-Feb-21 04:00N 48°54' W 123°27'611.9
2018-Feb-21 03:30N 48°50' W 123°20'5 8.8
2018-Feb-21 02:59N 48°48' W 123°14'0 0.9
2018-Feb-21 02:30N 48°48' W 123°14'1 1.0
2018-Feb-21 02:00N 48°48' W 123°13'1 2.3
2018-Feb-21 01:30N 48°48' W 123°15'4 7.8
2018-Feb-21 01:00N 48°45' W 123°11'3 6.9
2018-Feb-21 00:30N 48°42' W 123°13'5 9.6
2018-Feb-21 00:00N 48°42' W 123°20'1 2.4
2018-Feb-20 23:30N 48°42' W 123°22'1 1.3
2018-Feb-20 23:00N 48°42' W 123°23'510.1
2018-Feb-20 22:30N 48°47' W 123°21'4 8.5
2018-Feb-20 22:01N 48°51' W 123°25'611.2
2018-Feb-20 21:30N 48°55' W 123°30'1610.9
2018-Feb-20 20:05N 49°06' W 123°46'0 2.8
2018-Feb-20 19:59N 49°06' W 123°46'0 0.4
2018-Feb-20 19:23N 49°06' W 123°46'0 0.8
2018-Feb-20 19:00N 49°06' W 123°46'1 1.2
2018-Feb-20 18:26N 49°05' W 123°45'3 6.3
2018-Feb-20 17:56N 49°02' W 123°44'511.6
2018-Feb-20 17:30N 48°58' W 123°43'3 5.2
2018-Feb-20 17:00N 48°55' W 123°41'5 7.9
2018-Feb-20 16:25N 48°60' W 123°44'4 8.0
2018-Feb-20 15:51N 49°01' W 123°37'3 9.5
2018-Feb-20 15:29N 48°58' W 123°34'5 9.6
2018-Feb-20 15:00N 48°55' W 123°29'5 9.9
2018-Feb-20 14:30N 48°51' W 123°23'4 8.8
2018-Feb-20 14:00N 48°47' W 123°20'5 9.7
2018-Feb-20 13:30N 48°44' W 123°15'4 8.5
2018-Feb-20 13:00N 48°44' W 123°08'4 7.7
2018-Feb-20 12:30N 48°46' W 123°03'4 9.0
2018-Feb-20 12:00N 48°50' W 123°05'612.0
2018-Feb-20 11:30N 48°55' W 123°11'610.2
2018-Feb-20 10:58N 48°59' W 123°17'510.2
2018-Feb-20 10:30N 49°02' W 123°22'4 8.8
2018-Feb-20 10:00N 49°06' W 123°24'510.3
2018-Feb-20 09:30N 49°11' W 123°23'510.1
2018-Feb-20 09:00N 49°16' W 123°22'510.4
2018-Feb-20 08:30N 49°21' W 123°20'510.5
2018-Feb-20 08:00N 49°26' W 123°17'3 6.1
2018-Feb-20 07:30N 49°23' W 123°18'510.8
2018-Feb-20 07:00N 49°18' W 123°19'611.0
2018-Feb-20 06:30N 49°13' W 123°19'611.9
2018-Feb-20 06:00N 49°07' W 123°20'510.5
2018-Feb-20 05:30N 49°02' W 123°17'612.2
2018-Feb-20 05:00N 48°58' W 123°10'612.1
2018-Feb-20 04:29N 48°54' W 123°03'611.3
2018-Feb-20 04:00N 48°49' W 123°01'611.4
2018-Feb-20 03:28N 48°44' W 123°07'612.6
2018-Feb-20 03:00N 48°42' W 123°15'612.7
2018-Feb-20 02:30N 48°35' W 123°13'611.9
2018-Feb-20 02:00N 48°30' W 123°10'612.1
2018-Feb-20 01:30N 48°24' W 123°12'  
2018-Feb-15 19:10N 48°21' W 123°20'212.3
2018-Feb-15 19:00N 48°21' W 123°17'4 7.9
2018-Feb-15 18:30N 48°21' W 123°11'4 7.4
2018-Feb-15 18:00N 48°20' W 123°16'5 7.4
2018-Feb-15 17:21N 48°20' W 123°23'2 7.0
2018-Feb-15 17:00N 48°22' W 123°25'2 0.1
2018-Feb-14 22:15N 48°23' W 123°23'312.0
2018-Feb-14 21:58N 48°21' W 123°19'4 7.9
2018-Feb-14 21:27N 48°21' W 123°13'1 1.2
2018-Feb-14 21:00N 48°20' W 123°12'4 8.4
2018-Feb-14 20:31N 48°21' W 123°19'6 9.2
2018-Feb-14 19:53N 48°21' W 123°10'3 7.1
2018-Feb-14 19:30N 48°23' W 123°07'3 6.2
2018-Feb-14 18:58N 48°21' W 123°10'11 5.2
2018-Feb-14 16:53N 48°24' W 123°26'1 0.1
2018-Feb-13 23:24N 48°24' W 123°24'716.2
2018-Feb-13 22:56N 48°20' W 123°14'4 8.4
2018-Feb-13 22:30N 48°22' W 123°09'1 1.1
2018-Feb-13 22:00N 48°22' W 123°09'6 8.9
2018-Feb-13 21:17N 48°18' W 123°17'3 9.0
2018-Feb-13 21:00N 48°20' W 123°14'4 7.7
2018-Feb-13 20:30N 48°22' W 123°09'1 2.6
2018-Feb-13 19:58N 48°21' W 123°10'4 8.8
2018-Feb-13 19:30N 48°20' W 123°16'5 9.7
2018-Feb-13 19:01N 48°23' W 123°11'3 5.2
2018-Feb-13 18:29N 48°20' W 123°10'4 8.6
2018-Feb-13 18:00N 48°20' W 123°17'6 8.3
2018-Feb-13 17:17N 48°20' W 123°26'  

Dump ship's entire track history